This is the latest recevied weather packets stored in our database for station/object HB0RER-13. If no packets are shown the sender has not sent any weather packets the latest 10 day(s).
| Time | Temp. | Humidity | Pressure | Rain* | Wind** | Luminosity | Snow |
|---|---|---|---|---|---|---|---|
| 1777056872 | 15° C | 24% | 1018.7 hPa | 0 mm | - | - | - |
| 1777056254 | 15.56° C | 24% | 1018.6 hPa | 0 mm | - | - | - |
| 1777049631 | 20° C | 10% | 1018.2 hPa | 0 mm | - | - | - |
| 1777048427 | 20° C | 9% | 1018.3 hPa | 0 mm | - | - | - |
| 1777047826 | 20.56° C | 11% | 1018.4 hPa | 0 mm | - | - | - |
| 1777046621 | 20.56° C | 8% | 1018.4 hPa | 0 mm | - | - | - |
| 1777045417 | 20.56° C | 11% | 1018.6 hPa | 0 mm | - | - | - |
| 1777033377 | 20.56° C | 30% | 1019.5 hPa | 0 mm | - | - | - |
| 1777030368 | 20° C | 34% | 1019.9 hPa | 0 mm | - | - | - |
| 1777028561 | 20° C | 35% | 1020.2 hPa | 0 mm | - | - | - |
| 1777026174 | 19.44° C | 36% | 1020.5 hPa | 0 mm | - | - | - |
| 1777024348 | 19.44° C | 31% | 1020.7 hPa | 0 mm | - | - | - |
| 1777023745 | 19.44° C | 34% | 1020.7 hPa | 0 mm | - | - | - |
| 1777017725 | 16.67° C | 41% | 1021.5 hPa | 0 mm | - | - | - |
| 1777013511 | 14.44° C | 51% | 1022.1 hPa | 0 mm | - | - | - |
| 1777012909 | 14.44° C | 51% | 1022.1 hPa | 0 mm | - | - | - |
| 1777012308 | 13.89° C | 53% | 1022.1 hPa | 0 mm | - | - | - |
| 1777011124 | 13.33° C | 57% | 1022.4 hPa | 0 mm | - | - | - |
| 1777009899 | 12.22° C | 61% | 1022.6 hPa | 0 mm | - | - | - |
| 1777008113 | 8.89° C | 73% | 1022.7 hPa | 0 mm | - | - | - |
| 1777005084 | 3.89° C | 74% | 1022.7 hPa | 0 mm | - | - | - |
| 1777003899 | 3.89° C | 73% | 1022.8 hPa | 0 mm | - | - | - |
| 1777003278 | 3.89° C | 73% | 1022.8 hPa | 0 mm | - | - | - |
| 1777000869 | 4.44° C | 71% | 1022.8 hPa | 0 mm | - | - | - |
| 1776999665 | 4.44° C | 70% | 1022.9 hPa | 0 mm | - | - | - |
* Rain latest hour (hover to see other rain measurements)
** Current wind speed in m/s (hover to see current wind gust speed)